LZTT

Poprad-Tatry Airport

Poprad, Slovakia (Slovak Republic)
TAF LZTT 212300Z 2200/2300 29004KT CAVOK TEMPO 2202/2206 VRB02KT 4000 BCFG SCT005 BECMG 2209/2211 9999 SCT040 BECMG 2212/2214 CAVOK
Issued Valid From Valid To
Jan-21 @ 23:00 UTC
(2 hours ago)
Jan-22 @ 00:00 UTC
(46 minutes ago)
Jan-23 @ 00:00 UTC
(in 23 hours)
Jan-22 @ 00:00 to Jan-22 @ 09:00
TAF LZTT 212300Z 2200/2300 29004KT CAVOK
Wind Visibility Clouds Conditions
290° at 4 knots 10,000+ meters
  • No significant clouds
Temporary Jan-22 @ 02:00 to Jan-22 @ 06:00
TEMPO 2202/2206 VRB02KT 4000 BCFG SCT005
Wind Visibility Clouds Conditions
Variable at 2 knots 4,007 meters
  • Scattered at 500' AGL
  • Patches of
  • Fog
Becoming Jan-22 @ 09:00 to Jan-22 @ 12:00
BECMG 2209/2211 9999 SCT040
Wind Visibility Clouds Conditions
290° at 4 knots 10,000+ meters
  • Scattered at 4,000' AGL
Becoming Jan-22 @ 12:00 to Jan-23 @ 00:00
BECMG 2212/2214 CAVOK
Wind Visibility Clouds Conditions
290° at 4 knots 10,000+ meters
  • No significant clouds
TAF LZTT 212300Z 2200/2300 29004KT CAVOK TEMPO 2202/2206 VRB02KT 4000 BCFG SCT005 BECMG 2209/2211 9999 SCT040 BECMG 2212/2214 CAVOK
Issued Jan-21 @ 23:00 UTC
(2 hours ago)
Valid From Jan-22 @ 00:00 UTC
(46 minutes ago)
Valid To Jan-23 @ 00:00 UTC
(in 23 hours)
Jan-22 @ 00:00 - Jan-22 @ 09:00
Wind Visibility
290° at 4 knots 10,000+ meters
Clouds
  • No significant clouds
Conditions
Temporary Jan-22 @ 02:00 - Jan-22 @ 06:00
Wind Visibility
Variable at 2 knots 4,007 meters
Clouds
  • Scattered at 500' AGL
Conditions
  • Patches of
  • Fog
Becoming Jan-22 @ 09:00 - Jan-22 @ 12:00
Wind Visibility
290° at 4 knots 10,000+ meters
Clouds
  • Scattered at 4,000' AGL
Conditions
Becoming Jan-22 @ 12:00 - Jan-23 @ 00:00
Wind Visibility
290° at 4 knots 10,000+ meters
Clouds
  • No significant clouds
Conditions